Hlavní strana
METAR-TAF:

METAR-TAF

Letiště :

Vladikavkaz, Rusko

zeměpisná šířka: 43-12-18N, zeměpisná délka: 044-36-24E, výška: 510 m

Aktuální stav počasí

Zpráva byla vytvořena před 32 minutami, v 18:00 UTC
vítr z různých směrů 2 kt
Teplota -2°C
Vlhkost vzduchu 100%
Tlak 1012 hPa
Viditelnost: 9000 m
Oblačno až skoro zataženo ve výšce 500 ft
Zataženo ve výšce 2000 ft
slabé sněžení

METAR: URMO 181800Z VRB01MPS 9000 -SN BKN005 OVC020 M02/M02 Q1012 R09/521040 NOSIG RMK MT OBSC QFE715/0954

Čas: 21:32 (18:32 UTC)

Předpověď počasí

Zpráva byla vytvořena před 4 hodinami a 32 minutami, v 14:00 UTC
Předpověď platná od 18 v 15 UTC do 18 v 24 UTC
Západoseverozápadní vítr 6 kt s nárazy do 16 kt
Viditelnost: 3100 m
Zataženo ve výšce 600 ft
slabé sněžení, kouřmo
Dočasný
od 18 v 15 UTC do 18 v 21 UTC
Viditelnost: 1100 m
Zataženo ve výšce 400 ft
sníh

TAF: URMO 181400Z 1815/1824 30003G08MPS 3100 -SN BR OVC006 TEMPO 1815/1821 1100 SN OVC004

Stav a předpovědi počasí z více než 4 000 letišť (zprávy METAR a TAF).

Červené a žluté tečky na mapě představují dostupné meteorologické stanice.

Když kurzor umístíte na tečku, zobrazí se název stanice.

Pak kliknutím zobrazíte stav a předpověď počasí.

Chcete-li změnit mapu, kliknutím na zelené tlačítko se znaménkem +mapu přiblížíte, kliknutím na zelené tlačítko se znaménkem – mapu oddálíte a kliknutím na zelené šipky přejdete na sousední mapy.


METAR-TAF: